• Join FlightAware (Why Join?)
  • Login
  • US Flag 
01:40PM EDT


 

Airport Tracker/Info


-or-


 

Live Flight TrackerFlight Track Log ✈ SWA2336 ✈ 08-Feb-2014 ✈ KBWI - KMCO

Flight Track Log - Related Links

Times and Time Zones

All times are in EST time to prevent confusion due to time zone crossing. See the SWA2336 flight status page for this flight to view local times or setup timezone preferences in your user account.

Time Position Orientation Groundspeed Altitude Reporting Facility
EST Latitude Longitude Course Direction KTS MPH feet Rate Location/Type
08:34AM 39.1686 -76.7294 180° South 171 197 1,900  Level Washington Center
08:34AM 39.1500 -76.7167 152° Southeast 206 237 3,400 2,580 Climbing Potomac TRACON
08:35AM 39.1000 -76.6667 142° Southeast 234 269 5,700 2,160 Climbing Potomac TRACON
08:36AM 39.0500 -76.6000 134° Southeast 277 319 7,600 2,880 Climbing Potomac TRACON
08:37AM 39.0000 -76.5333 134° Southeast 280 322 11,200 2,520 Climbing Potomac TRACON
08:39AM 38.8767 -76.5061 170° South 286 329 14,000 1,020 Climbing Washington Center
08:40AM 38.6412 -76.9317 180° South  Level Estimated
08:40AM 38.8033 -76.5400 200° South 268 308 14,000  Level Washington Center
08:41AM 38.7319 -76.5950 211° Southwest 281 323 15,200 1,980 Climbing Washington Center
08:42AM 38.6606 -76.6497 211° Southwest 291 335 18,100 2,880 Climbing Washington Center
08:43AM 38.5872 -76.7044 210° Southwest 309 356 21,100 2,940 Climbing Washington Center
08:44AM 38.4975 -76.7192 187° South 309 356 24,000 2,460 Climbing Washington Center
08:45AM 38.4017 -76.7069 174° South 327 376 26,000 1,440 Climbing Washington Center
08:46AM 38.2994 -76.6897 172° South 347 399 27,000 1,680 Climbing Washington Center
08:47AM 38.1953 -76.6775 175° South 370 426 29,400 2,460 Climbing Washington Center
08:48AM 38.0956 -76.6631 173° South 370 426 31,900 1,260 Climbing Washington Center
08:49AM 37.9975 -76.6511 175° South 365 420 32,000  Climbing Washington Center
08:50AM 37.9036 -76.6525 181° South 359 413 32,000  Level Washington Center
08:51AM 37.8075 -76.6667 187° South 354 407 32,000  Level Washington Center
08:52AM 37.7136 -76.6761 185° South 349 402 32,000  Level Washington Center
08:53AM 37.6175 -76.6878 185° South 349 402 32,000 180 Level Washington Center
08:54AM 37.5217 -76.7019 187° South 349 402 32,400 960 Climbing Washington Center
08:55AM 37.4275 -76.7164 187° South 349 402 34,000 1,380 Climbing Washington Center
08:56AM 37.3394 -76.7542 199° South 337 388 35,200 1,260 Climbing Washington Center
08:57AM 37.2622 -76.7844 197° South 332 382 36,600 1,140 Climbing Washington Center
08:58AM 37.1783 -76.8222 200° South 327 376 37,500 660 Climbing Washington Center
08:59AM 37.0922 -76.8600 199° South 327 376 38,000 240 Climbing Washington Center
09:00AM 37.0022 -76.8975 198° South 332 382 38,000  Level Washington Center
09:01AM 36.9142 -76.9350 199° South 332 382 38,000  Level Washington Center
09:03AM 36.7381 -77.0069 198° South 332 382 38,000  Level Washington Center
09:04AM 36.6500 -77.0442 199° South 332 382 38,000  Level Washington Center
09:05AM 36.5642 -77.0764 197° South 326 375 38,000  Level Washington Center
09:06AM 36.4781 -77.1161 200° South 326 375 38,000  Level Washington Center
09:07AM 36.3900 -77.1506 197° South 326 375 38,000  Level Washington Center
09:08AM 36.3042 -77.1847 198° South 326 375 38,000  Level Washington Center
09:09AM 36.2181 -77.2192 198° South 326 375 38,000  Level Washington Center
09:10AM 36.1278 -77.2583 199° South 318 366 38,000  Level Washington Center
09:11AM 36.0375 -77.2900 196° South 318 366 38,000  Level Washington Center
09:12AM 35.9517 -77.3267 199° South 329 379 38,000  Level Washington Center
09:13AM 35.8656 -77.3631 199° South 329 379 38,000  Level Washington Center
09:14AM 35.7794 -77.3944 196° South 329 379 38,000  Level Washington Center
09:15AM 35.6914 -77.4308 199° South 329 379 38,000  Level Washington Center
09:17AM 35.5275 -77.4961 198° South 324 373 38,000  Level Washington Center
09:18AM 35.4414 -77.5297 198° South 324 373 38,000  Level Washington Center
09:19AM 35.3572 -77.5708 202° Southwest 324 373 38,000  Level Washington Center
09:20AM 35.2894 -77.6381 219° Southwest 318 366 38,000  Level Washington Center
09:21AM 35.2233 -77.7100 222° Southwest 318 366 38,000  Level Washington Center
09:22AM 35.1597 -77.7769 221° Southwest 318 366 38,000  Level Washington Center
09:23AM 35.0917 -77.8461 220° Southwest 318 366 38,000  Level Washington Center
09:24AM 35.0233 -77.9178 221° Southwest 318 366 38,000  Level Washington Center
09:25AM 34.9533 -77.9867 219° Southwest 318 366 38,000  Level Washington Center
09:26AM 34.8850 -78.0581 221° Southwest 318 366 38,000  Level Washington Center
09:27AM 34.7603 -78.1850 220° Southwest 323 372 38,000  Level Jacksonville Center
09:28AM 34.6883 -78.2672 223° Southwest 323 372 38,000  Level Jacksonville Center
09:29AM 34.6158 -78.3392 219° Southwest 334 384 38,000  Level Jacksonville Center
09:30AM 34.5494 -78.4081 221° Southwest 334 384 38,000  Level Jacksonville Center
09:31AM 34.4769 -78.4800 219° Southwest 334 384 38,000  Level Jacksonville Center
09:32AM 34.4083 -78.5514 221° Southwest 334 384 38,000  Level Jacksonville Center
09:34AM 34.2672 -78.6917 231° Southwest 334 384 38,000  Level Jacksonville Center
09:35AM 34.1944 -78.7603 218° Southwest 334 384 38,000  Level Jacksonville Center
09:36AM 34.1258 -78.8314 221° Southwest 334 384 38,000  Level Jacksonville Center
09:37AM 34.0569 -78.8997 219° Southwest 339 390 38,000  Level Jacksonville Center
09:38AM 33.9922 -78.9653 220° Southwest 339 390 38,000  Level Jacksonville Center
09:39AM 33.9214 -79.0336 219° Southwest 339 390 38,000  Level Jacksonville Center
09:40AM 33.8525 -79.1042 220° Southwest 334 384 38,000  Level Jacksonville Center
09:41AM 33.7817 -79.1719 219° Southwest 334 384 38,000  Level Jacksonville Center
09:42AM 33.7086 -79.2425 219° Southwest 334 384 38,000  Level Jacksonville Center
09:43AM 33.6375 -79.3128 219° Southwest 327 376 38,000  Level Jacksonville Center
09:46AM 33.4242 -79.5256 219° Southwest 332 382 38,000  Level Jacksonville Center
09:47AM 33.3528 -79.5903 217° Southwest 332 382 38,000  Level Jacksonville Center
09:48AM 33.2961 -79.6497 221° Southwest 337 388 38,000  Level Jacksonville Center
09:49AM 33.2164 -79.7244 218° Southwest 337 388 38,000  Level Jacksonville Center
09:50AM 33.1453 -79.7939 219° Southwest 337 388 38,000  Level Jacksonville Center
09:51AM 33.0717 -79.8636 218° Southwest 337 388 38,000  Level Jacksonville Center
09:52AM 33.0484 -79.8770 219° Southwest  Level FlightAware Approximate
09:52AM 33.0003 -79.9328 219° Southwest 337 388 38,000  Level Jacksonville Center
09:53AM 32.9267 -80.0019 218° Southwest 337 388 38,000  Level Jacksonville Center
09:54AM 32.8531 -80.0661 216° Southwest 337 388 38,000  Level Jacksonville Center
09:55AM 32.7772 -80.1253 213° Southwest 337 388 38,000  Level Jacksonville Center
09:56AM 32.7011 -80.1819 212° Southwest 332 382 38,000  Level Jacksonville Center
09:57AM 32.6211 -80.2411 212° Southwest 332 382 38,000  Level Jacksonville Center
09:58AM 32.5428 -80.2975 211° Southwest 332 382 38,000  Level Jacksonville Center
09:59AM 32.4647 -80.3539 211° Southwest 338 389 38,000  Level Jacksonville Center
10:00AM 32.3864 -80.4128 212° Southwest 338 389 38,000  Level Jacksonville Center
10:02AM 32.2281 -80.5275 211° Southwest 338 389 38,000  Level Jacksonville Center
10:03AM 32.1497 -80.5861 212° Southwest 338 389 38,000  Level Jacksonville Center
10:04AM 32.0653 -80.6469 211° Southwest 338 389 38,000  Level Jacksonville Center
10:05AM 31.9950 -80.6978 212° Southwest 332 382 38,000  Level Jacksonville Center
10:06AM 31.9358 -80.7800 230° Southwest 300 345 38,000  Level Jacksonville Center
10:08AM 31.8515 -80.8330 208° Southwest  Level FlightAware Approximate
10:08AM 31.7958 -80.8956 208° Southwest 320 368 38,000  Level Jacksonville Center
10:10AM 31.7024 -80.9327 207° Southwest  Level FlightAware Approximate
10:10AM 31.6428 -80.9892 207° Southwest 326 375 38,000  Level Jacksonville Center
10:11AM 31.5517 -81.0422 206° Southwest 326 375 38,000  Level Jacksonville Center
10:12AM 31.4711 -81.0900 207° Southwest 326 375 38,000  Level Jacksonville Center
10:13AM 31.3986 -81.1328 207° Southwest 318 366 38,000  Level Jacksonville Center
10:14AM 31.3011 -81.1761 201° Southwest 341 392 38,000  Level Jacksonville Center
10:15AM 31.1944 -81.1731 179° South 374 430 38,000  Level Jacksonville Center
10:16AM 31.0922 -81.1678 177° South 379 436 38,000 -1,380 Level Jacksonville Center
10:18AM 30.8811 -81.1619 180° South 379 436 33,900 -2,460 Descending Jacksonville Center
10:19AM 30.7661 -81.1592 179° South 397 457 30,700 -2,160 Descending Jacksonville Center
10:20AM 30.6508 -81.1225 165° South 414 476 29,600 -1,380 Descending Jacksonville Center
10:21AM 30.5417 -81.0789 161° South 414 476 28,000 -840 Descending Jacksonville Center
10:22AM 30.4306 -81.0375 162° South 420 483 28,000  Level Jacksonville Center
10:23AM 30.3256 -80.9986 162° South 420 483 28,000  Level Jacksonville Center
10:25AM 30.1136 -80.9211 153° Southeast 401 461 28,000 -480 Level Jacksonville Center
10:26AM 30.0064 -80.8825 163° South 401 461 26,600 -1,980 Descending Jacksonville Center
10:27AM 29.9036 -80.8561 167° South 395 455 24,100 -2,580 Descending Jacksonville Center
10:28AM 29.7992 -80.8414 173° South 389 448 21,500 -2,340 Descending Jacksonville Center
10:29AM 29.6967 -80.8317 175° South 384 442 19,500 -2,040 Descending Jacksonville Center
10:30AM 29.5983 -80.8194 174° South 372 428 17,500 -1,800 Descending Jacksonville Center
10:31AM 29.5147 -80.8092 174° South 364 419 16,000 -1,800 Descending Jacksonville Center
10:32AM 29.4247 -80.7919 171° South 350 403 13,900 -1,980 Descending Jacksonville Center
10:33AM 29.3328 -80.7844 176° South 337 388 12,100 -780 Descending Jacksonville Center
10:35AM 29.2000 -80.7667 173° South 317 365 12,000 -60 Descending Orlando TRACON
10:36AM 29.1000 -80.7500 172° South 315 362 12,000  Level Orlando TRACON
10:37AM 29.0167 -80.7333 170° South 264 304 12,000  Level Orlando TRACON
10:38AM 28.9500 -80.7500 192° South 277 319 12,000 -540 Level Orlando TRACON
10:39AM 28.8833 -80.7667 192° South 277 319 11,000 -960 Descending Orlando TRACON
10:40AM 28.8000 -80.8000 199° South 274 315 10,000 -480 Descending Orlando TRACON
10:41AM 28.7500 -80.8500 221° Southwest 223 257 10,000 -60 Level Orlando TRACON
10:43AM 28.6833 -80.9667 237° Southwest 220 253 9,900 -360 Descending Orlando TRACON
10:44AM 28.6500 -81.0167 233° Southwest 197 227 9,000 -480 Descending Orlando TRACON
10:45AM 28.6167 -81.0667 233° Southwest 198 228 9,000  Level Orlando TRACON
10:46AM 28.5833 -81.1167 233° Southwest 198 228 9,000  Level Orlando TRACON
10:47AM 28.5500 -81.1667 233° Southwest 201 231 9,000  Level Orlando TRACON
10:48AM 28.5000 -81.1833 196° South 211 243 9,000 -720 Level Orlando TRACON
10:50AM 28.4000 -81.1833 180° South 205 236 6,900 -1,080 Descending Orlando TRACON
10:51AM 28.3333 -81.1833 180° South 202 232 5,800 -1,140 Descending Orlando TRACON
10:53AM 28.2333 -81.1833 180° South 190 219 3,600 -1,080 Descending Orlando TRACON
10:54AM 28.2000 -81.2167 221° Southwest 183 211 2,600 -720 Descending Orlando TRACON
10:56AM 28.2833 -81.2833 344° North 184 212 1,600 -360 Descending Orlando TRACON
10:57AM 28.3333 -81.2833 360° North 183 211 1,600 -300 Level Orlando TRACON
10:58AM 28.3667 -81.2833 360° North 153 176 1,000 -660 Descending Orlando TRACON
10:59AM 28.4167 -81.2833 360° North 125 144 300 -720 Descending Orlando TRACON
11:01AM 28.4167 -81.3000 336° Northwest  Level FlightAware Approximate
11:08AM 28.4294 -81.3090 336° Northwest  Level Estimated
11:09AM 28.4294 -81.3090 336° Northwest  Level Estimated
11:10AM 28.4294 -81.3090 336° Northwest  Level Estimated
11:11AM 28.4294 -81.3090 336° Northwest  Level Estimated